createdAt,value
2016-06-02T16:29:50.215Z,1001.92
2016-06-02T16:30:50.250Z,1001.91
2016-06-02T16:31:50.283Z,1001.91
2016-06-02T16:32:50.317Z,1001.88
2016-06-02T16:33:50.367Z,1001.87
2016-06-02T16:34:50.401Z,1001.84
2016-06-02T16:35:50.435Z,1001.82
2016-06-02T16:36:50.484Z,1001.85
2016-06-02T16:37:50.503Z,1001.86
2016-06-02T16:38:50.536Z,1001.85
2016-06-02T16:39:50.821Z,1001.87
2016-06-02T16:40:50.620Z,1001.85
2016-06-02T16:41:50.654Z,1001.89
2016-06-02T16:42:50.688Z,1001.93
2016-06-02T16:43:50.722Z,1001.95
2016-06-02T16:44:50.756Z,1001.95
2016-06-02T16:45:50.821Z,1002.02
2016-06-02T16:46:50.839Z,1002.04
2016-06-02T16:47:50.874Z,1002.04
2016-06-02T16:48:50.907Z,1002.04
2016-06-02T16:49:50.941Z,1002.03
2016-06-02T16:50:50.975Z,1002.03
2016-06-02T16:51:51.024Z,1002.05
2016-06-02T16:52:51.059Z,1002.1
2016-06-02T16:53:51.092Z,1002.13
2016-06-02T16:54:51.862Z,1002.12
2016-06-02T16:55:51.176Z,1002.09
2016-06-02T16:56:51.210Z,1002.11
2016-06-02T16:57:51.245Z,1002.12
2016-06-02T16:58:51.278Z,1002.1
2016-06-02T16:59:51.358Z,1002.11
2016-06-02T17:00:51.346Z,1002.16
2016-06-02T17:01:51.895Z,1002.11
2016-06-02T17:02:51.428Z,1002.1
2016-06-02T17:03:51.464Z,1002.14
2016-06-02T17:04:51.497Z,1002.14
2016-06-02T17:05:51.531Z,1002.13
2016-06-02T17:06:51.581Z,1002.13
2016-06-02T17:07:51.614Z,1002.14
2016-06-02T17:08:51.649Z,1002.16
2016-06-02T17:09:51.886Z,1002.13
2016-06-02T17:10:51.716Z,1002.13
2016-06-02T17:11:51.766Z,1002.15
2016-06-02T17:12:51.800Z,1002.13
2016-06-02T17:13:51.833Z,1002.16
2016-06-02T17:14:51.868Z,1002.14
2016-06-02T17:15:51.902Z,1002.17
2016-06-02T17:16:51.935Z,1002.19
2016-06-02T17:17:51.985Z,1002.17
2016-06-02T17:18:52.035Z,1002.14
2016-06-02T17:19:52.053Z,1002.15
2016-06-02T17:20:52.088Z,1002.12
2016-06-02T17:21:52.121Z,1002.07
2016-06-02T17:22:52.170Z,1002.07
2016-06-02T17:23:52.204Z,1002.04
2016-06-02T17:24:53.004Z,1001.99
2016-06-02T17:25:52.273Z,1002.02
2016-06-02T17:26:52.337Z,1002.03
2016-06-02T17:27:52.356Z,1002.04
2016-06-02T17:28:52.390Z,1002.01
2016-06-02T17:29:52.424Z,1002
2016-06-02T17:30:52.458Z,1001.97
2016-06-02T17:31:52.492Z,1002.04
2016-06-02T17:32:52.542Z,1002.03
2016-06-02T17:33:52.576Z,1002.04
2016-06-02T17:34:52.609Z,1002.02
2016-06-02T17:35:52.643Z,1002.02
2016-06-02T17:36:52.677Z,1002.03
2016-06-02T17:37:52.727Z,1002.03
2016-06-02T17:38:52.761Z,1002.02
2016-06-02T17:39:53.326Z,1002.05
2016-06-02T17:40:52.828Z,1002.04
2016-06-02T17:41:52.878Z,1002.06
2016-06-02T17:42:52.912Z,1002
2016-06-02T17:43:52.946Z,1002
2016-06-02T17:44:53.996Z,1002
2016-06-02T17:45:53.014Z,1002.02
2016-06-02T17:46:53.047Z,1002.01
2016-06-02T17:47:53.097Z,1002
2016-06-02T17:48:53.131Z,1002.02
2016-06-02T17:49:53.166Z,1002.01
2016-06-02T17:50:53.199Z,1001.98
2016-06-02T17:51:53.232Z,1001.97
2016-06-02T17:52:53.283Z,1001.99
2016-06-02T17:53:53.316Z,1002.02
2016-06-02T17:54:53.351Z,1002.04
2016-06-02T17:55:53.384Z,1002.07
2016-06-02T17:56:53.418Z,1002.06
2016-06-02T17:57:53.452Z,1002.06
2016-06-02T17:58:53.501Z,1002.03
2016-06-02T17:59:53.582Z,1002.07
2016-06-02T18:00:53.570Z,1002.07
2016-06-02T18:01:53.604Z,1002.07
2016-06-02T18:02:53.637Z,1002.06
2016-06-02T18:03:53.687Z,1002.04
2016-06-02T18:04:53.720Z,1002.05
2016-06-02T18:05:53.755Z,1002.01
2016-06-02T18:06:53.789Z,1002.01
2016-06-02T18:07:53.823Z,1002.04
2016-06-02T18:08:53.873Z,1002.03
2016-06-02T18:09:53.906Z,1002.1
2016-06-02T18:10:53.941Z,1002.1
2016-06-02T18:11:53.974Z,1002.12
2016-06-02T18:12:54.008Z,1002.17
2016-06-02T18:13:54.042Z,1002.11
2016-06-02T18:14:54.076Z,1002.13
2016-06-02T18:15:54.126Z,1002.13
2016-06-02T18:16:54.160Z,1002.15
2016-06-02T18:17:54.193Z,1002.16
2016-06-02T18:18:54.227Z,1002.19
2016-06-02T18:19:54.261Z,1002.2
2016-06-02T18:20:54.311Z,1002.19
2016-06-02T18:21:54.345Z,1002.22
2016-06-02T18:22:54.379Z,1002.22
2016-06-02T18:23:54.413Z,1002.22
2016-06-02T18:24:54.462Z,1002.22
2016-06-02T18:25:54.482Z,1002.22
2016-06-02T18:26:54.529Z,1002.2
2016-06-02T18:27:54.564Z,1002.2
2016-06-02T18:28:54.614Z,1002.21
2016-06-02T18:29:54.632Z,1002.24
2016-06-02T18:30:54.665Z,1002.23
2016-06-02T18:31:54.701Z,1002.26
2016-06-02T18:32:54.750Z,1002.25
2016-06-02T18:33:54.783Z,1002.29
2016-06-02T18:34:54.817Z,1002.33
2016-06-02T18:35:54.851Z,1002.3
2016-06-02T18:36:54.917Z,1002.29
2016-06-02T18:37:54.919Z,1002.25
2016-06-02T18:38:54.954Z,1002.27
2016-06-02T18:39:55.236Z,1002.27
2016-06-02T18:40:55.567Z,1002.24
2016-06-02T18:41:55.070Z,1002.28
2016-06-02T18:42:55.105Z,1002.24
2016-06-02T18:43:55.139Z,1002.24
2016-06-02T18:44:55.189Z,1002.28
2016-06-02T18:45:55.206Z,1002.31
2016-06-02T18:46:55.256Z,1002.31
2016-06-02T18:47:55.291Z,1002.32
2016-06-02T18:48:55.324Z,1002.28
2016-06-02T18:49:55.374Z,1002.33
2016-06-02T18:50:55.392Z,1002.33
2016-06-02T18:51:55.441Z,1002.32
2016-06-02T18:52:55.474Z,1002.36
2016-06-02T18:53:55.510Z,1002.38
2016-06-02T18:54:55.543Z,1002.34
2016-06-02T18:55:56.312Z,1002.36
2016-06-02T18:56:55.627Z,1002.33
2016-06-02T18:57:55.660Z,1002.36
2016-06-02T18:58:55.695Z,1002.36
2016-06-02T18:59:55.776Z,1002.37
2016-06-02T19:00:55.763Z,1002.38
2016-06-02T19:01:55.796Z,1002.34
2016-06-02T19:02:55.831Z,1002.36
2016-06-02T19:03:55.879Z,1002.35
2016-06-02T19:04:55.898Z,1002.36
2016-06-02T19:05:55.948Z,1002.34
2016-06-02T19:06:55.981Z,1002.34
2016-06-02T19:07:56.016Z,1002.35
2016-06-02T19:08:56.050Z,1002.41
2016-06-02T19:09:56.084Z,1002.38
2016-06-02T19:10:56.633Z,1002.36
2016-06-02T19:11:56.167Z,1002.34
2016-06-02T19:12:56.201Z,1002.36
2016-06-02T19:13:56.236Z,1002.36
2016-06-02T19:14:56.269Z,1002.39
2016-06-02T19:15:56.303Z,1002.39
2016-06-02T19:16:56.353Z,1002.41
2016-06-02T19:17:56.386Z,1002.43
2016-06-02T19:18:56.436Z,1002.47
2016-06-02T19:19:56.455Z,1002.46
2016-06-02T19:20:56.489Z,1002.47
2016-06-02T19:21:56.522Z,1002.45
2016-06-02T19:22:56.572Z,1002.47
2016-06-02T19:23:56.605Z,1002.45
2016-06-02T19:24:56.640Z,1002.42
2016-06-02T19:25:56.674Z,1002.47
2016-06-02T19:26:56.707Z,1002.45
2016-06-02T19:27:56.757Z,1002.4
2016-06-02T19:28:56.791Z,1002.4
2016-06-02T19:29:57.012Z,1002.39
2016-06-02T19:30:56.859Z,1002.38
2016-06-02T19:31:56.893Z,1002.38
2016-06-02T19:32:56.926Z,1002.4
2016-06-02T19:33:56.960Z,1002.37
2016-06-02T19:34:57.009Z,1002.38
2016-06-02T19:35:57.279Z,1002.39
2016-06-02T19:36:57.140Z,1002.42
2016-06-02T19:37:57.112Z,1002.45
2016-06-02T19:38:57.162Z,1002.48
2016-06-02T19:39:57.195Z,1002.51
2016-06-02T19:40:57.229Z,1002.51
2016-06-02T19:41:57.264Z,1002.58
2016-06-02T19:42:57.297Z,1002.59
2016-06-02T19:43:57.347Z,1002.65
2016-06-02T19:44:57.381Z,1002.66
2016-06-02T19:45:57.414Z,1002.67
2016-06-02T19:46:57.449Z,1002.68
2016-06-02T19:47:57.483Z,1002.68
2016-06-02T19:57:49.837Z,1002.56
2016-06-02T19:58:49.371Z,1002.56
2016-06-02T19:59:49.405Z,1002.53
2016-06-02T20:00:49.987Z,1002.52
2016-06-02T20:01:49.473Z,1002.54
2016-06-02T20:02:49.507Z,1002.51
2016-06-02T20:03:49.541Z,1002.47
2016-06-02T20:04:49.590Z,1002.46
